Terminal Aerodrome Forecast
Issued by NWS Sterling, VA

Home | Current Version | Previous Version | Text Only | Print | Product List | Glossary On
Versions: 1 2 3 4 5 6 7 8 9 10 11 12 13 14 15 16 17 18 19 20 21 22 23 24 25 26 27 28
157
FTUS41 KLWX 292059 AAA
TAFBWI
TAF AMD
KBWI 292059Z 2921/3024 35009KT P6SM FEW250
     FM300200 02007KT P6SM SCT250
     FM301400 07004KT P6SM BKN090
     FM301900 14005KT P6SM BKN060=

USA.gov is the U.S. government's official web portal to all federal, state and local government web resources and services.